Etusivu
METAR-TAF:

METAR-TAF

Lentoasemat :

Šiauliai, Liettua

Leveyspiiri: 55-53-38N, Pituuspiiri: 023-23-42E, korkeus merenpinnasta: 135 m

Tämänhetkinen sää

Tämä raportti tehtiin 38 minuuttia sitten, kello 14.20 UTC
Tuuli 12 kn etelästä/lounaasta
Lämpötila 1°C
Kosteus 100%
Ilmanpaine 1009 hPa
Näkyvyys 10 km tai enemmän
Hajonneita pilviä 900 ft:n korkeudessa
Pilvistä 1600 ft:n korkeudessa

METAR: EYSA 131420Z 21012KT 9999 BKN009 OVC016 01/01 Q1009 R14L/29//95 R14R/29//95 GRN NOSIG

Aika: 16:58 (14:58 UTC)

Sääennuste

Tämä raportti tehtiin 58 minuuttia sitten, kello 14.00 UTC
Ennuste voimassa 13. päivästä klo 15 UTC - 13. päivään klo 24 UTC
Tuuli 12 kn etelästä/lounaasta puuskistuen 22 kn:hen
Näkyvyys: 5000 m
Hajanaisia pilviä 500 ft:n korkeudessa
Hajonneita pilviä 1000 ft:n korkeudessa
utua

TAF: EYSA 131400Z 1315/1324 20012G22KT 5000 BR SCT005 BKN010

Säähavainnot ja -ennusteet yli 4000 lentoasemalta (METAR- ja TAF-raportit).

Käytössä olevat sääasemat on merkitty karttaan keltaisilla ja punaisilla pisteillä.

Aseta hiiri pisteen päälle nähdäksesi sääaseman nimen.

Klikkaa sitten nähdäksesi säähavainnot ja -ennusteet.

Kartan vaihtaminen: klikkaa mustalla rastilla varustettuja vihreitä pisteitä, niin voit zoomata sisään; viivalla varustettua vihreää pistettä, niin voit zoomata ulos tai vihreitä nuolia, niin pääset viereisille kartoille.


METAR-TAF: